createdAt,value
2022-12-23T00:00:32.270Z,22.20
2022-12-23T00:03:00.437Z,22.40
2022-12-23T00:05:34.161Z,17.87
2022-12-23T00:08:07.768Z,18.80
2022-12-23T00:10:38.925Z,20.60
2022-12-23T00:13:24.809Z,20.73
2022-12-23T00:15:52.893Z,15.17
2022-12-23T00:18:20.924Z,16.97
2022-12-23T00:20:48.968Z,21.83
2022-12-23T00:23:18.377Z,20.07
2022-12-23T00:25:46.811Z,16.90
2022-12-23T00:28:16.952Z,18.80
2022-12-23T00:30:49.500Z,24.17
2022-12-23T00:33:19.878Z,18.60
2022-12-23T00:35:49.660Z,18.00
2022-12-23T00:38:41.369Z,25.90
2022-12-23T00:41:30.359Z,21.50
2022-12-23T00:43:58.570Z,23.73
2022-12-23T00:46:26.769Z,23.27
2022-12-23T00:49:12.622Z,20.80
2022-12-23T00:51:40.694Z,24.67
2022-12-23T00:54:10.165Z,23.57
2022-12-23T00:56:38.217Z,23.23
2022-12-23T00:59:06.331Z,23.97
2022-12-23T01:01:52.090Z,19.73
2022-12-23T01:04:38.228Z,23.17
2022-12-23T01:07:07.238Z,18.27
2022-12-23T01:09:37.688Z,25.00
2022-12-23T01:12:06.427Z,19.70
2022-12-23T01:14:34.664Z,26.10
2022-12-23T01:17:02.823Z,24.37
2022-12-23T01:19:31.211Z,21.70
2022-12-23T01:21:59.236Z,22.60
2022-12-23T01:24:29.125Z,21.33
2022-12-23T01:26:58.541Z,22.87
2022-12-23T01:29:26.800Z,22.90
2022-12-23T01:31:54.947Z,21.77
2022-12-23T01:34:23.016Z,21.60
2022-12-23T01:36:51.130Z,22.20
2022-12-23T01:39:19.429Z,24.03
2022-12-23T01:42:04.815Z,19.77
2022-12-23T01:45:05.708Z,19.00
2022-12-23T01:47:38.770Z,22.37
2022-12-23T01:50:12.221Z,21.70
2022-12-23T01:52:45.623Z,23.57
2022-12-23T01:55:15.501Z,18.93
2022-12-23T01:57:44.902Z,23.10
2022-12-23T02:00:32.482Z,22.63
2022-12-23T02:03:18.270Z,21.17
2022-12-23T02:05:47.148Z,22.47
2022-12-23T02:08:34.601Z,22.73
2022-12-23T02:11:21.291Z,22.50
2022-12-23T02:14:17.553Z,24.13
2022-12-23T02:16:55.048Z,21.10
2022-12-23T02:19:40.913Z,30.47
2022-12-23T02:22:32.199Z,29.17
2022-12-23T02:25:31.215Z,26.67
2022-12-23T02:28:20.941Z,26.37
2022-12-23T02:30:59.084Z,24.47
2022-12-23T02:33:41.130Z,29.27
2022-12-23T02:36:26.876Z,29.10
2022-12-23T02:39:01.871Z,26.10
2022-12-23T02:41:34.945Z,28.60
2022-12-23T02:44:10.303Z,26.40
2022-12-23T02:46:47.178Z,27.43
2022-12-23T02:49:22.170Z,28.07
2022-12-23T02:51:53.738Z,25.47
2022-12-23T02:54:27.692Z,27.47
2022-12-23T02:56:56.955Z,27.67
2022-12-23T02:59:28.799Z,24.70
2022-12-23T03:07:24.504Z,21.97
2022-12-23T03:10:04.328Z,22.23
2022-12-23T03:12:44.432Z,21.40
2022-12-23T03:15:23.610Z,20.23
2022-12-23T03:18:01.815Z,22.00
2022-12-23T03:20:40.309Z,21.20
2022-12-23T03:23:18.593Z,22.63
2022-12-23T03:25:54.647Z,19.00
2022-12-23T03:28:29.870Z,20.77
2022-12-23T03:31:00.386Z,19.23
2022-12-23T03:33:30.846Z,21.50
2022-12-23T03:36:03.333Z,22.20
2022-12-23T03:38:36.884Z,20.57
2022-12-23T03:41:09.157Z,18.27
2022-12-23T03:43:48.534Z,17.17
2022-12-23T03:46:24.727Z,16.83
2022-12-23T03:48:57.774Z,16.93
2022-12-23T03:51:28.910Z,18.60
2022-12-23T03:54:02.792Z,17.10
2022-12-23T03:56:36.660Z,15.97
2022-12-23T03:59:10.284Z,15.87
2022-12-23T04:01:49.138Z,21.53
2022-12-23T04:04:22.503Z,20.23
2022-12-23T04:06:59.082Z,16.20
2022-12-23T04:09:30.372Z,17.83
2022-12-23T04:11:59.396Z,18.67
2022-12-23T04:14:27.423Z,16.57
2022-12-23T04:16:58.413Z,16.10
2022-12-23T04:19:26.603Z,18.20
2022-12-23T04:21:56.862Z,19.13
2022-12-23T04:24:24.969Z,16.03
2022-12-23T04:26:54.497Z,16.67
2022-12-23T04:29:22.554Z,18.33
2022-12-23T04:31:50.721Z,14.63
2022-12-23T04:34:18.866Z,14.23
2022-12-23T04:36:46.935Z,14.57
2022-12-23T04:39:15.198Z,14.10
2022-12-23T04:41:43.266Z,12.50
2022-12-23T04:44:12.711Z,16.40
2022-12-23T04:46:40.871Z,17.17
2022-12-23T04:49:09.300Z,15.67
2022-12-23T04:51:37.388Z,14.33
2022-12-23T04:54:05.556Z,12.80
2022-12-23T04:56:33.615Z,13.50
2022-12-23T04:59:02.464Z,16.13
2022-12-23T05:01:32.046Z,15.07
2022-12-23T05:04:00.158Z,14.93
2022-12-23T05:06:28.334Z,12.73
2022-12-23T05:08:56.484Z,16.10
2022-12-23T05:11:24.541Z,12.43
2022-12-23T05:13:52.639Z,13.27
2022-12-23T05:16:20.774Z,14.30
2022-12-23T05:18:50.359Z,12.03
2022-12-23T05:21:18.947Z,13.73
2022-12-23T05:23:47.009Z,10.67
2022-12-23T05:26:15.144Z,12.67
2022-12-23T05:28:45.593Z,12.63
2022-12-23T05:31:14.563Z,14.37
2022-12-23T05:33:42.745Z,12.73
2022-12-23T05:36:12.834Z,14.10
2022-12-23T05:38:40.894Z,11.90
2022-12-23T05:41:09.126Z,13.83
2022-12-23T05:43:37.471Z,15.37
2022-12-23T05:46:05.781Z,11.20
2022-12-23T05:48:33.930Z,12.13
2022-12-23T05:51:01.974Z,12.87
2022-12-23T05:53:31.509Z,14.77
2022-12-23T05:55:59.547Z,12.97
2022-12-23T05:58:28.146Z,13.73
2022-12-23T06:00:56.254Z,12.93
2022-12-23T06:03:24.557Z,15.43
2022-12-23T06:05:53.280Z,12.87
2022-12-23T06:08:21.676Z,12.10
2022-12-23T06:10:51.274Z,14.03
2022-12-23T06:13:20.621Z,14.77
2022-12-23T06:15:48.839Z,14.07
2022-12-23T06:18:16.898Z,14.30
2022-12-23T06:20:47.699Z,14.87
2022-12-23T06:23:15.843Z,15.47
2022-12-23T06:25:43.989Z,13.43
2022-12-23T06:28:13.449Z,14.57
2022-12-23T06:34:32.513Z,13.70
2022-12-23T06:37:00.648Z,14.70
2022-12-23T06:39:28.826Z,14.43
2022-12-23T06:41:56.948Z,12.23
2022-12-23T06:44:26.417Z,11.93
2022-12-23T06:46:54.484Z,13.17
2022-12-23T06:49:22.604Z,18.07
2022-12-23T06:51:50.719Z,15.70
2022-12-23T06:54:18.832Z,14.00
2022-12-23T06:56:46.938Z,17.63
2022-12-23T06:59:15.248Z,15.10
2022-12-23T07:01:44.781Z,15.60
2022-12-23T07:04:12.999Z,18.40
2022-12-23T07:06:41.124Z,14.67
2022-12-23T07:09:09.236Z,16.40
2022-12-23T07:11:37.355Z,15.47
2022-12-23T07:14:05.636Z,15.40
2022-12-23T07:16:33.822Z,14.67
2022-12-23T07:19:03.557Z,14.83
2022-12-23T07:21:31.686Z,17.47
2022-12-23T07:23:59.793Z,17.63
2022-12-23T07:26:27.943Z,16.87
2022-12-23T07:28:56.041Z,18.70
2022-12-23T07:31:24.277Z,17.23
2022-12-23T07:33:52.468Z,20.60
2022-12-23T07:36:21.898Z,17.73
2022-12-23T07:38:51.829Z,16.33
2022-12-23T07:41:20.186Z,17.23
2022-12-23T07:43:48.300Z,15.80
2022-12-23T07:46:16.581Z,17.90
2022-12-23T07:48:44.707Z,18.37
2022-12-23T07:51:12.857Z,17.73
2022-12-23T07:53:42.337Z,18.73
2022-12-23T07:56:10.463Z,19.93
2022-12-23T07:58:38.561Z,18.50
2022-12-23T08:01:08.579Z,21.73
2022-12-23T08:03:37.760Z,21.33
2022-12-23T08:06:08.539Z,18.97
2022-12-23T08:08:37.152Z,18.90
2022-12-23T08:11:08.561Z,21.30
2022-12-23T08:13:38.533Z,17.97
2022-12-23T08:16:08.542Z,25.53
2022-12-23T08:18:39.099Z,19.77
2022-12-23T08:21:09.408Z,23.67
2022-12-23T08:23:37.510Z,20.40
2022-12-23T08:26:10.108Z,24.27
2022-12-23T08:28:40.544Z,24.27
2022-12-23T08:31:10.446Z,27.60
2022-12-23T08:33:40.250Z,25.10
2022-12-23T08:36:10.133Z,26.83
2022-12-23T08:38:38.700Z,25.23
2022-12-23T08:41:11.994Z,26.87
2022-12-23T08:43:40.721Z,25.77
2022-12-23T08:46:09.583Z,25.43
2022-12-23T08:48:38.134Z,23.60
2022-12-23T08:51:09.110Z,26.23
2022-12-23T08:53:39.088Z,26.47
2022-12-23T08:56:09.263Z,26.40
2022-12-23T08:58:40.479Z,30.83
2022-12-23T09:01:10.739Z,25.90
2022-12-23T09:03:39.505Z,25.73
2022-12-23T09:06:09.375Z,25.60
2022-12-23T09:08:38.344Z,30.57
2022-12-23T09:11:09.416Z,23.47
2022-12-23T09:13:38.909Z,25.37
2022-12-23T09:16:08.107Z,31.53
2022-12-23T09:18:36.680Z,27.70
2022-12-23T09:21:07.227Z,29.40
2022-12-23T09:23:35.905Z,25.63
2022-12-23T09:26:05.911Z,24.97
2022-12-23T09:28:34.021Z,26.07
2022-12-23T09:31:10.397Z,26.70
2022-12-23T09:33:38.776Z,27.20
2022-12-23T09:36:08.104Z,30.63
2022-12-23T09:38:36.777Z,31.97
2022-12-23T09:41:11.855Z,28.93
2022-12-23T09:43:49.209Z,28.10
2022-12-23T09:46:22.306Z,27.40
2022-12-23T09:49:00.820Z,24.80
2022-12-23T09:51:30.661Z,29.23
2022-12-23T09:54:07.901Z,37.97
2022-12-23T09:56:43.269Z,37.30
2022-12-23T09:59:22.394Z,35.43
2022-12-23T10:01:57.282Z,39.07
2022-12-23T10:04:40.641Z,38.60
2022-12-23T10:07:20.503Z,40.40
2022-12-23T10:09:52.397Z,47.23
2022-12-23T10:12:30.670Z,44.73
2022-12-23T10:15:04.529Z,39.90
2022-12-23T10:17:42.652Z,43.53
2022-12-23T10:20:18.242Z,47.90
2022-12-23T10:22:47.425Z,45.40
2022-12-23T10:25:19.371Z,46.10
2022-12-23T10:27:47.614Z,38.43
2022-12-23T10:33:23.392Z,36.93
2022-12-23T10:36:02.331Z,46.07
2022-12-23T10:38:49.713Z,49.10
2022-12-23T10:41:27.720Z,45.97
2022-12-23T10:44:21.277Z,43.93
2022-12-23T10:47:01.247Z,42.80
2022-12-23T10:49:40.717Z,40.03
2022-12-23T10:52:15.694Z,40.33
2022-12-23T10:54:46.753Z,41.43
2022-12-23T10:57:17.724Z,41.67
2022-12-23T10:59:46.038Z,35.83
2022-12-23T11:02:31.494Z,42.43
2022-12-23T11:05:01.022Z,35.87
2022-12-23T11:07:46.457Z,35.70
2022-12-23T11:10:19.348Z,39.90
2022-12-23T11:12:50.485Z,36.00
2022-12-23T11:15:29.146Z,36.00
2022-12-23T11:18:02.476Z,34.10
2022-12-23T11:20:32.613Z,29.53
2022-12-23T11:23:02.824Z,29.10
2022-12-23T11:25:34.953Z,27.13
2022-12-23T11:28:07.775Z,30.63
2022-12-23T11:30:39.101Z,30.63
2022-12-23T11:33:07.351Z,28.60
2022-12-23T11:35:38.244Z,27.27
2022-12-23T11:38:13.855Z,27.13
2022-12-23T11:40:42.086Z,30.40
2022-12-23T11:43:15.524Z,27.33
2022-12-23T11:45:43.684Z,27.27
2022-12-23T11:48:29.616Z,26.80
2022-12-23T11:51:04.107Z,26.60
2022-12-23T11:53:32.435Z,25.47
2022-12-23T11:56:04.206Z,27.30
2022-12-23T11:58:38.254Z,23.40
2022-12-23T12:01:15.839Z,21.40
2022-12-23T12:03:49.534Z,21.37
2022-12-23T12:06:21.549Z,24.50
2022-12-23T12:08:51.742Z,25.17
2022-12-23T12:11:26.095Z,22.13
2022-12-23T12:13:59.622Z,22.20
2022-12-23T12:16:51.755Z,25.43
2022-12-23T12:19:25.064Z,23.47
2022-12-23T12:22:00.559Z,25.57
2022-12-23T12:24:32.725Z,21.80
2022-12-23T12:27:04.682Z,21.17
2022-12-23T12:29:38.914Z,20.30
2022-12-23T12:32:16.904Z,23.23
2022-12-23T12:34:53.039Z,21.40
2022-12-23T12:37:32.958Z,21.07
2022-12-23T12:40:03.692Z,23.07
2022-12-23T12:42:37.871Z,20.97
2022-12-23T12:45:17.883Z,16.80
2022-12-23T12:47:57.840Z,17.37
2022-12-23T12:50:34.586Z,18.23
2022-12-23T12:53:13.266Z,17.37
2022-12-23T12:55:46.275Z,16.87
2022-12-23T12:58:20.879Z,16.07
2022-12-23T13:01:01.768Z,20.57
2022-12-23T13:04:06.959Z,18.50
2022-12-23T13:06:43.121Z,17.00
2022-12-23T13:09:20.202Z,18.90
2022-12-23T13:12:02.335Z,14.47
2022-12-23T13:14:39.763Z,15.83
2022-12-23T13:17:13.712Z,13.80
2022-12-23T13:19:51.908Z,15.23
2022-12-23T13:22:26.003Z,16.00
2022-12-23T13:25:02.574Z,15.50
2022-12-23T13:27:34.550Z,12.73
2022-12-23T13:30:13.963Z,11.13
2022-12-23T13:33:07.958Z,12.17
2022-12-23T13:36:05.041Z,14.23
2022-12-23T13:38:56.616Z,12.07
2022-12-23T13:41:32.260Z,13.57
2022-12-23T13:44:01.817Z,15.10
2022-12-23T13:46:45.282Z,10.80
2022-12-23T13:49:21.093Z,15.77
2022-12-23T13:51:57.133Z,11.20
2022-12-23T13:54:38.834Z,13.13
2022-12-23T13:57:17.703Z,15.77
2022-12-23T14:00:04.993Z,11.53
2022-12-23T14:02:51.811Z,13.10
2022-12-23T14:05:33.123Z,14.00
2022-12-23T14:08:02.826Z,11.80
2022-12-23T14:10:31.848Z,13.57
2022-12-23T14:13:04.389Z,12.03
2022-12-23T14:15:53.200Z,12.57
2022-12-23T14:18:43.181Z,10.90
2022-12-23T14:21:24.085Z,12.07
2022-12-23T14:24:15.798Z,11.83
2022-12-23T14:27:16.648Z,8.90
2022-12-23T14:30:04.932Z,10.60
2022-12-23T14:32:44.199Z,10.70
2022-12-23T14:35:27.961Z,11.70
2022-12-23T14:38:27.070Z,9.63
2022-12-23T14:41:24.695Z,9.67
2022-12-23T14:44:00.048Z,11.80
2022-12-23T14:46:58.038Z,9.47
2022-12-23T14:49:43.989Z,9.13
2022-12-23T14:53:00.793Z,10.17
2022-12-23T14:55:53.686Z,9.50
2022-12-23T14:59:01.663Z,8.90
2022-12-23T15:01:39.769Z,8.20
2022-12-23T15:04:15.936Z,10.37
2022-12-23T15:06:48.774Z,8.23
2022-12-23T15:09:24.602Z,7.97
2022-12-23T15:11:54.729Z,7.23
2022-12-23T15:14:32.791Z,6.83
2022-12-23T15:17:01.234Z,7.90
2022-12-23T15:19:29.764Z,7.10
2022-12-23T15:22:21.198Z,9.00
2022-12-23T15:24:52.175Z,7.13
2022-12-23T15:27:30.292Z,8.07
2022-12-23T15:29:59.443Z,8.17
2022-12-23T15:32:28.981Z,8.50
2022-12-23T15:35:06.128Z,6.03
2022-12-23T15:37:36.128Z,6.83
2022-12-23T15:40:12.783Z,6.23
2022-12-23T15:42:48.385Z,9.53
2022-12-23T15:45:32.753Z,6.73
2022-12-23T15:48:02.951Z,6.13
2022-12-23T15:50:32.276Z,8.20
2022-12-23T15:53:07.016Z,6.67
2022-12-23T15:55:37.485Z,11.53
2022-12-23T15:58:06.066Z,12.90
2022-12-23T16:00:40.067Z,13.23
2022-12-23T16:03:20.030Z,12.57
2022-12-23T16:05:48.251Z,18.33
2022-12-23T16:08:29.734Z,17.93
2022-12-23T16:11:05.371Z,13.23
2022-12-23T16:13:34.736Z,12.30
2022-12-23T16:16:33.187Z,10.60
2022-12-23T16:19:01.648Z,10.97
2022-12-23T16:21:33.811Z,11.77
2022-12-23T16:24:08.217Z,11.67
2022-12-23T16:26:42.049Z,9.10
2022-12-23T16:29:11.432Z,9.07
2022-12-23T16:31:44.288Z,9.50
2022-12-23T16:34:16.555Z,8.90
2022-12-23T16:36:44.791Z,11.10
2022-12-23T16:39:21.629Z,10.60
2022-12-23T16:41:50.119Z,10.87
2022-12-23T16:44:18.337Z,13.53
2022-12-23T16:46:50.555Z,11.93
2022-12-23T16:49:20.456Z,11.57
2022-12-23T16:51:49.180Z,12.20
2022-12-23T16:54:20.602Z,13.17
2022-12-23T16:56:49.132Z,10.97
2022-12-23T16:59:17.619Z,11.43
2022-12-23T17:01:47.598Z,12.93
2022-12-23T17:04:17.116Z,13.00
2022-12-23T17:06:46.646Z,12.50
2022-12-23T17:09:14.918Z,14.67
2022-12-23T17:11:47.389Z,14.90
2022-12-23T17:14:17.723Z,14.80
2022-12-23T17:16:46.783Z,17.47
2022-12-23T17:19:15.597Z,19.93
2022-12-23T17:21:45.704Z,18.90
2022-12-23T17:24:23.143Z,22.00
2022-12-23T17:26:53.459Z,22.40
2022-12-23T17:29:21.623Z,22.50
2022-12-23T17:31:51.261Z,23.43
2022-12-23T17:34:20.900Z,21.93
2022-12-23T17:36:50.593Z,29.57
2022-12-23T17:39:19.209Z,23.23
2022-12-23T17:41:47.871Z,25.90
2022-12-23T17:44:19.032Z,23.50
2022-12-23T17:46:48.006Z,22.87
2022-12-23T17:49:16.218Z,24.53
2022-12-23T17:51:44.496Z,28.07
2022-12-23T17:54:22.716Z,25.80
2022-12-23T17:56:51.116Z,25.87
2022-12-23T17:59:20.552Z,20.07
2022-12-23T18:01:48.780Z,25.10
2022-12-23T18:04:17.105Z,27.13
2022-12-23T18:06:45.225Z,20.90
2022-12-23T18:09:13.341Z,24.73
2022-12-23T18:11:44.480Z,29.60
2022-12-23T18:14:17.984Z,25.57
2022-12-23T18:16:47.520Z,23.27
2022-12-23T18:19:19.218Z,24.20
2022-12-23T18:21:48.099Z,30.80
2022-12-23T18:24:16.625Z,22.20
2022-12-23T18:26:45.087Z,25.00
2022-12-23T18:29:13.175Z,25.80
2022-12-23T18:31:50.931Z,26.13
2022-12-23T18:34:22.055Z,23.43
2022-12-23T18:36:52.096Z,26.50
2022-12-23T18:39:21.044Z,25.60
2022-12-23T18:41:49.452Z,32.20
2022-12-23T18:44:20.594Z,24.17
2022-12-23T18:46:49.328Z,33.87
2022-12-23T18:49:17.702Z,27.10
2022-12-23T18:51:47.413Z,22.47
2022-12-23T18:54:16.036Z,22.50
2022-12-23T18:56:44.458Z,20.97
2022-12-23T18:59:20.094Z,27.73
2022-12-23T19:01:50.896Z,23.13
2022-12-23T19:04:19.067Z,21.50
2022-12-23T19:06:48.596Z,29.37
2022-12-23T19:09:19.765Z,18.00
2022-12-23T19:11:50.159Z,19.40
2022-12-23T19:14:18.482Z,12.17
2022-12-23T19:16:51.492Z,20.53
2022-12-23T19:19:20.650Z,14.17
2022-12-23T19:21:50.052Z,23.63
2022-12-23T19:24:18.329Z,18.90
2022-12-23T19:26:46.421Z,24.33
2022-12-23T19:29:14.592Z,20.83
2022-12-23T19:31:42.774Z,19.13
2022-12-23T19:34:14.898Z,21.43
2022-12-23T19:36:43.924Z,27.53
2022-12-23T19:39:16.580Z,11.70
2022-12-23T19:41:45.430Z,19.30
2022-12-23T19:44:13.621Z,21.13
2022-12-23T19:46:41.914Z,30.30
2022-12-23T19:49:15.760Z,24.10
2022-12-23T19:51:47.712Z,23.30
2022-12-23T19:54:17.353Z,26.47
2022-12-23T19:56:45.608Z,28.50
2022-12-23T19:59:13.897Z,18.27
2022-12-23T20:01:42.128Z,21.90
2022-12-23T20:04:11.293Z,25.07
2022-12-23T20:06:40.700Z,18.43
2022-12-23T20:09:10.200Z,24.17
2022-12-23T20:11:41.668Z,20.63
2022-12-23T20:14:10.002Z,21.83
2022-12-23T20:16:39.088Z,27.67
2022-12-23T20:19:07.686Z,22.10
2022-12-23T20:21:37.481Z,26.27
2022-12-23T20:24:06.261Z,23.40
2022-12-23T20:26:34.566Z,17.37
2022-12-23T20:29:04.424Z,20.90
2022-12-23T20:31:35.428Z,23.37
2022-12-23T20:34:04.173Z,15.73
2022-12-23T20:36:35.022Z,20.33
2022-12-23T20:39:03.950Z,17.27
2022-12-23T20:41:32.698Z,23.43
2022-12-23T20:46:50.860Z,18.63
2022-12-23T20:49:19.052Z,21.27
2022-12-23T20:51:47.117Z,19.57
2022-12-23T20:54:15.255Z,13.80
2022-12-23T20:56:43.302Z,19.37
2022-12-23T20:59:15.895Z,15.47
2022-12-23T21:01:44.283Z,15.13
2022-12-23T21:04:15.888Z,14.77
2022-12-23T21:06:45.082Z,12.73
2022-12-23T21:09:15.884Z,20.77
2022-12-23T21:11:46.474Z,21.27
2022-12-23T21:14:15.225Z,24.67
2022-12-23T21:16:43.820Z,18.87
2022-12-23T21:19:18.257Z,24.67
2022-12-23T21:21:47.034Z,23.20
2022-12-23T21:24:15.307Z,16.27
2022-12-23T21:26:43.877Z,19.87
2022-12-23T21:29:12.834Z,19.87
2022-12-23T21:31:42.399Z,14.67
2022-12-23T21:34:14.244Z,21.23
2022-12-23T21:36:44.113Z,26.13
2022-12-23T21:39:15.772Z,15.90
2022-12-23T21:41:44.383Z,19.00
2022-12-23T21:44:14.661Z,18.83
2022-12-23T21:46:42.865Z,18.77
2022-12-23T21:49:11.401Z,14.77
2022-12-23T21:51:41.289Z,20.30
2022-12-23T21:54:12.209Z,22.33
2022-12-23T21:56:41.287Z,19.30
2022-12-23T21:59:13.065Z,16.47
2022-12-23T22:01:41.420Z,15.03
2022-12-23T22:04:09.731Z,17.13
2022-12-23T22:06:39.979Z,18.27
2022-12-23T22:09:11.405Z,22.07
2022-12-23T22:11:40.030Z,20.60
2022-12-23T22:14:09.968Z,18.23
2022-12-23T22:16:38.292Z,13.00
2022-12-23T22:19:08.702Z,16.60
2022-12-23T22:21:39.628Z,23.27
2022-12-23T22:24:08.464Z,21.97
2022-12-23T22:26:37.944Z,21.63
2022-12-23T22:29:07.211Z,13.27
2022-12-23T22:31:38.403Z,13.40
2022-12-23T22:34:07.617Z,22.63
2022-12-23T22:36:36.159Z,17.47
2022-12-23T22:39:06.601Z,17.33
2022-12-23T22:41:37.171Z,15.20
2022-12-23T22:44:05.486Z,17.50
2022-12-23T22:46:33.808Z,16.47
2022-12-23T22:49:02.225Z,14.37
2022-12-23T22:51:32.284Z,17.07
2022-12-23T22:54:02.589Z,15.77
2022-12-23T22:56:30.744Z,11.00
2022-12-23T22:59:00.273Z,12.73
2022-12-23T23:01:30.448Z,17.40
2022-12-23T23:04:00.472Z,24.33
2022-12-23T23:06:31.275Z,19.17
2022-12-23T23:08:59.770Z,15.13
2022-12-23T23:11:29.246Z,12.50
2022-12-23T23:13:59.712Z,16.00
2022-12-23T23:16:28.127Z,15.63
2022-12-23T23:18:56.527Z,14.63
2022-12-23T23:21:24.637Z,14.03
2022-12-23T23:23:52.877Z,15.17
2022-12-23T23:26:22.386Z,18.50
2022-12-23T23:28:50.544Z,17.53
2022-12-23T23:34:08.418Z,31.27
2022-12-23T23:36:36.550Z,23.37
2022-12-23T23:39:04.777Z,20.30
2022-12-23T23:41:32.890Z,14.40
2022-12-23T23:44:00.985Z,14.97
2022-12-23T23:46:31.761Z,16.87
2022-12-23T23:49:00.076Z,18.53
2022-12-23T23:51:28.318Z,12.80
2022-12-23T23:53:56.412Z,22.67
2022-12-23T23:56:26.281Z,19.57
2022-12-23T23:58:55.425Z,17.70
